Time;durP1;ratioP1;P1;durP2;ratioP2;P2;SDS_P1;SDS_P2;PMS_P1;PMS_P2;Temp;Humidity;BMP_temperature;BMP_pressure;BME280_temperature;BME280_humidity;BME280_pressure;Samples;Min_cycle;Max_cycle;Signal;HPM_P1;HPM_P2
2022/12/01 00:02:46;;;;;;;13.90;12.50;;;21.40;87.40;;;;;;6201340;28;90121;-69
2022/12/01 00:05:58;;;;;;;15.50;13.50;;;21.40;87.50;;;;;;6198821;28;89226;-68
2022/12/01 00:12:19;;;;;;;14.77;13.18;;;21.30;87.20;;;;;;6192751;28;88422;-69
2022/12/01 00:15:22;;;;;;;13.75;12.35;;;21.30;87.30;;;;;;6209619;28;89578;-69
2022/12/01 00:18:24;;;;;;;14.38;12.88;;;21.30;87.20;;;;;;6193743;28;89127;-69
2022/12/01 00:21:28;;;;;;;14.65;13.15;;;21.30;87.30;;;;;;6209567;28;89175;-69
2022/12/01 00:24:30;;;;;;;15.90;14.00;;;21.30;87.30;;;;;;6190948;28;89214;-69
2022/12/01 00:27:32;;;;;;;14.02;12.52;;;21.20;87.30;;;;;;6181686;28;88136;-68
2022/12/01 00:30:34;;;;;;;14.75;13.13;;;21.20;87.30;;;;;;6183495;28;88421;-69
2022/12/01 00:33:36;;;;;;;15.20;13.27;;;21.20;87.50;;;;;;6184672;28;89265;-69
2022/12/01 00:36:40;;;;;;;14.10;12.68;;;21.20;87.50;;;;;;6196297;28;89270;-69
2022/12/01 00:39:42;;;;;;;14.68;13.18;;;21.20;87.50;;;;;;6199615;28;89970;-68
2022/12/01 00:42:44;;;;;;;14.32;12.90;;;21.20;87.50;;;;;;6217037;28;88690;-65
2022/12/01 00:45:46;;;;;;;14.20;12.70;;;21.20;87.50;;;;;;6203645;28;89451;-69
2022/12/01 00:48:49;;;;;;;13.55;12.15;;;21.20;87.60;;;;;;6211002;28;89250;-69
2022/12/01 00:51:52;;;;;;;13.32;11.98;;;21.20;87.70;;;;;;6196913;28;88103;-68
2022/12/01 00:54:54;;;;;;;14.18;12.68;;;21.20;87.70;;;;;;6202404;28;89365;-68
2022/12/01 00:57:56;;;;;;;14.88;13.27;;;21.20;87.40;;;;;;6194586;28;87968;-68
2022/12/01 01:00:59;;;;;;;13.73;12.38;;;21.20;87.40;;;;;;6205692;28;88610;-68
2022/12/01 01:04:01;;;;;;;14.45;12.95;;;21.20;87.50;;;;;;6204364;28;87950;-68
2022/12/01 01:07:05;;;;;;;14.13;12.55;;;21.20;87.60;;;;;;6206938;28;89336;-69
2022/12/01 01:10:08;;;;;;;13.43;12.02;;;21.10;87.50;;;;;;6203209;28;89062;-68
2022/12/01 01:13:10;;;;;;;13.95;12.38;;;21.10;87.60;;;;;;6200641;28;89314;-68
2022/12/01 01:16:15;;;;;;;13.60;12.20;;;21.10;87.60;;;;;;6203281;28;89042;-68
2022/12/01 01:19:17;;;;;;;13.93;12.43;;;21.10;87.70;;;;;;6191795;28;89382;-68
2022/12/01 01:22:21;;;;;;;14.13;12.13;;;21.10;87.70;;;;;;6211380;28;89286;-68
2022/12/01 01:25:23;;;;;;;13.60;12.20;;;21.10;87.60;;;;;;6204161;28;89345;-68
2022/12/01 01:28:25;;;;;;;13.23;11.93;;;21.10;87.70;;;;;;6204994;28;88384;-67
2022/12/01 01:31:29;;;;;;;13.07;11.75;;;21.00;87.70;;;;;;6204076;28;88610;-68
2022/12/01 01:34:31;;;;;;;13.20;11.82;;;21.00;87.70;;;;;;6203715;28;89174;-68
2022/12/01 01:37:34;;;;;;;13.50;12.10;;;21.00;87.70;;;;;;6202362;28;88079;-68
2022/12/01 01:40:43;;;;;;;13.55;12.15;;;21.00;87.70;;;;;;6191039;28;90632;-68
2022/12/01 01:43:47;;;;;;;13.93;12.52;;;21.00;87.80;;;;;;6191995;28;89108;-68
2022/12/01 01:46:49;;;;;;;13.13;11.82;;;21.00;87.70;;;;;;6193530;28;89249;-68
2022/12/01 01:49:52;;;;;;;13.30;11.90;;;21.00;88.60;;;;;;6214704;28;89157;-68
2022/12/01 01:52:59;;;;;;;13.02;11.63;;;21.00;87.80;;;;;;6199643;28;89670;-68
2022/12/01 01:56:02;;;;;;;12.55;11.10;;;21.00;87.80;;;;;;6207723;28;89188;-68
2022/12/01 01:59:04;;;;;;;12.82;11.52;;;21.00;87.70;;;;;;6199851;28;89142;-68
2022/12/01 02:02:09;;;;;;;13.50;12.13;;;21.00;87.80;;;;;;6204458;28;88444;-67
2022/12/01 02:05:16;;;;;;;12.52;11.23;;;20.90;87.70;;;;;;6201215;28;89272;-68
2022/12/01 02:08:19;;;;;;;12.45;11.18;;;21.00;87.80;;;;;;6196495;28;89126;-68
2022/12/01 02:11:48;;;;;;;13.13;11.73;;;20.90;87.70;;;;;;6198058;28;90339;-68
2022/12/01 02:15:08;;;;;;;12.15;10.90;;;20.90;87.80;;;;;;6200192;28;90436;-67
2022/12/01 02:18:23;;;;;;;14.57;11.90;;;20.90;87.70;;;;;;6197745;28;89088;-68
2022/12/01 02:21:37;;;;;;;12.52;11.23;;;20.90;87.80;;;;;;6195834;28;89219;-68
2022/12/01 02:24:51;;;;;;;13.57;11.55;;;20.90;87.80;;;;;;6192743;28;89187;-68
2022/12/01 02:28:19;;;;;;;13.02;11.27;;;20.90;87.70;;;;;;6193494;28;89175;-68
2022/12/01 02:31:28;;;;;;;12.20;11.00;;;20.90;87.80;;;;;;6204012;28;89796;-68
2022/12/01 02:34:37;;;;;;;13.43;11.85;;;20.90;87.80;;;;;;6192557;28;89180;-68
2022/12/01 02:37:46;;;;;;;12.48;11.18;;;20.80;87.80;;;;;;6191116;28;89105;-68
2022/12/01 02:40:56;;;;;;;12.27;10.98;;;20.80;87.80;;;;;;6185498;28;89332;-68
2022/12/01 02:44:04;;;;;;;11.90;10.70;;;20.80;87.80;;;;;;6211793;28;91208;-68
2022/12/01 02:47:11;;;;;;;11.85;10.65;;;20.80;87.80;;;;;;6203346;28;89237;-68
2022/12/01 02:50:14;;;;;;;11.15;10.05;;;20.80;87.80;;;;;;6193191;28;89263;-68
2022/12/01 02:53:19;;;;;;;11.35;10.20;;;20.80;87.80;;;;;;6199836;28;89471;-68
2022/12/01 02:56:22;;;;;;;11.95;10.55;;;20.80;87.90;;;;;;6206848;28;89133;-68
2022/12/01 02:59:24;;;;;;;11.30;10.10;;;20.80;87.80;;;;;;6187864;28;87915;-69
2022/12/01 03:02:41;;;;;;;11.50;10.32;;;20.80;88.00;;;;;;6204604;28;89364;-68
2022/12/01 03:05:52;;;;;;;11.57;10.38;;;20.80;87.90;;;;;;6210889;28;89360;-68
2022/12/01 03:09:09;;;;;;;11.65;10.52;;;20.80;88.00;;;;;;6190644;28;88766;-68
2022/12/01 03:12:20;;;;;;;11.23;10.13;;;20.80;88.00;;;;;;6207030;28;89746;-68
2022/12/01 03:15:30;;;;;;;10.82;9.80;;;20.70;88.70;;;;;;6196600;28;90101;-68
2022/12/01 03:18:38;;;;;;;10.88;9.77;;;20.70;88.00;;;;;;6206610;28;89288;-68
2022/12/01 03:21:44;;;;;;;11.65;10.45;;;20.70;87.90;;;;;;6208384;28;89277;-68
2022/12/01 03:24:49;;;;;;;11.38;10.18;;;20.70;87.80;;;;;;6186102;28;88980;-68
2022/12/01 03:27:55;;;;;;;10.43;9.35;;;20.70;87.80;;;;;;6194928;28;89261;-69
2022/12/01 03:31:01;;;;;;;11.60;10.40;;;20.80;87.80;;;;;;6203841;28;88868;-68
2022/12/01 03:34:11;;;;;;;11.05;9.85;;;20.70;87.80;;;;;;6194865;28;89229;-69
2022/12/01 03:37:18;;;;;;;10.48;9.30;;;20.70;87.80;;;;;;6207485;28;89343;-68
2022/12/01 03:40:26;;;;;;;10.30;9.23;;;20.70;87.80;;;;;;6203385;28;89050;-69
2022/12/01 03:43:33;;;;;;;10.25;9.23;;;20.70;87.80;;;;;;6196097;28;89039;-68
2022/12/01 03:46:43;;;;;;;10.70;9.55;;;20.70;87.80;;;;;;6181692;28;90076;-68
2022/12/01 03:49:50;;;;;;;10.88;9.77;;;20.60;87.80;;;;;;6198451;28;89052;-68
2022/12/01 03:53:04;;;;;;;9.98;8.98;;;20.60;87.80;;;;;;6206198;28;89375;-68
2022/12/01 03:56:07;;;;;;;10.10;9.10;;;20.70;87.80;;;;;;6199348;28;89227;-68
2022/12/01 03:59:11;;;;;;;10.85;9.80;;;20.60;88.80;;;;;;6203261;28;89105;-68
2022/12/01 04:02:13;;;;;;;11.55;9.50;;;20.60;87.80;;;;;;6202226;28;88925;-68
2022/12/01 04:05:16;;;;;;;10.38;9.30;;;20.70;87.80;;;;;;6183769;28;89229;-68
2022/12/01 04:08:18;;;;;;;10.25;9.20;;;20.60;87.70;;;;;;6207860;28;87295;-68
2022/12/01 04:14:40;;;;;;;9.85;8.85;;;20.60;87.70;;;;;;6196684;28;87938;-69
2022/12/01 04:17:43;;;;;;;10.20;9.10;;;20.60;87.60;;;;;;6206158;28;90142;-68
2022/12/01 04:20:48;;;;;;;9.82;8.82;;;20.60;87.40;;;;;;6204673;28;89271;-69
2022/12/01 04:24:02;;;;;;;9.98;8.95;;;20.60;87.10;;;;;;6200634;28;89134;-68
2022/12/01 04:27:04;;;;;;;10.20;9.18;;;20.60;87.10;;;;;;6204610;28;89004;-69
2022/12/01 04:30:08;;;;;;;10.05;9.05;;;20.60;87.00;;;;;;6205687;28;89185;-68
2022/12/01 04:33:10;;;;;;;9.10;8.20;;;20.70;87.10;;;;;;6205928;28;88221;-68
2022/12/01 04:36:13;;;;;;;11.07;9.13;;;20.60;87.00;;;;;;6202716;28;87960;-68
2022/12/01 04:39:16;;;;;;;9.57;8.65;;;20.70;87.00;;;;;;6195619;28;88495;-68
2022/12/01 04:42:18;;;;;;;9.63;8.63;;;20.70;87.30;;;;;;6205592;28;89724;-68
2022/12/01 04:45:20;;;;;;;9.07;8.18;;;20.70;86.80;;;;;;6206196;28;89179;-68
2022/12/01 04:48:22;;;;;;;9.63;8.63;;;20.70;86.80;;;;;;6195265;28;90432;-68
2022/12/01 04:51:25;;;;;;;9.05;8.15;;;20.80;86.80;;;;;;6202001;28;89217;-68
2022/12/01 04:54:27;;;;;;;9.80;8.80;;;20.80;86.80;;;;;;6206284;28;89008;-68
2022/12/01 04:57:29;;;;;;;8.70;7.80;;;20.80;86.70;;;;;;6196862;28;87966;-68
2022/12/01 05:00:31;;;;;;;9.60;8.65;;;20.80;86.70;;;;;;6191465;28;89161;-68
2022/12/01 05:03:37;;;;;;;9.40;8.50;;;20.80;86.60;;;;;;6202097;28;89068;-68
2022/12/01 05:06:42;;;;;;;9.05;8.15;;;20.80;86.60;;;;;;6205639;28;88737;-68
2022/12/01 05:09:44;;;;;;;9.25;8.35;;;20.80;86.60;;;;;;6218357;28;88485;-68
2022/12/01 05:12:46;;;;;;;9.43;8.40;;;20.90;86.60;;;;;;6192577;28;89314;-68
2022/12/01 05:15:48;;;;;;;11.20;8.68;;;20.90;86.50;;;;;;6200304;28;89442;-68
2022/12/01 05:20:55;;;;;;;8.80;7.90;;;20.90;86.50;;;;;;6199056;28;90218;-68
2022/12/01 05:22:14;;;;;;;9.25;8.13;;;20.90;86.40;;;;;;6201304;28;88801;-67
2022/12/01 05:25:16;;;;;;;9.45;8.43;;;20.90;86.50;;;;;;6205736;28;89067;-69
2022/12/01 05:28:18;;;;;;;8.57;7.78;;;21.00;86.40;;;;;;6206636;28;89125;-68
2022/12/01 05:31:20;;;;;;;8.77;7.88;;;21.00;86.40;;;;;;6204079;28;89374;-67
2022/12/01 05:34:22;;;;;;;8.73;7.82;;;21.00;86.30;;;;;;6199948;28;89175;-68
2022/12/01 05:37:25;;;;;;;8.68;7.78;;;21.00;86.30;;;;;;6197708;28;89741;-67
2022/12/01 05:40:29;;;;;;;8.68;7.78;;;21.00;86.20;;;;;;6204806;28;88573;-68
2022/12/01 05:43:31;;;;;;;8.65;7.68;;;21.00;86.10;;;;;;6191565;28;90039;-69
2022/12/01 05:46:33;;;;;;;8.93;8.02;;;21.00;86.10;;;;;;6193582;28;89102;-68
2022/12/01 05:49:35;;;;;;;9.15;8.02;;;21.10;86.10;;;;;;6190658;28;90803;-68
2022/12/01 05:52:38;;;;;;;8.93;7.97;;;21.00;86.10;;;;;;6204480;28;89223;-68
2022/12/01 05:55:41;;;;;;;8.45;7.57;;;21.10;86.10;;;;;;6193736;28;89103;-68
2022/12/01 05:58:43;;;;;;;8.07;7.28;;;21.10;86.10;;;;;;6198326;28;89388;-68
2022/12/01 06:01:45;;;;;;;8.18;7.38;;;21.10;86.10;;;;;;6199279;28;89115;-68
2022/12/01 06:04:47;;;;;;;8.38;7.57;;;21.10;86.00;;;;;;6196208;28;89166;-67
2022/12/01 06:07:50;;;;;;;8.68;7.88;;;21.10;86.00;;;;;;6205496;28;89182;-67
2022/12/01 06:10:52;;;;;;;9.05;8.13;;;21.10;86.00;;;;;;6205090;28;88422;-68
2022/12/01 06:13:54;;;;;;;8.30;7.50;;;21.10;86.00;;;;;;6204389;28;89293;-67
2022/12/01 06:16:57;;;;;;;8.45;7.55;;;21.20;86.00;;;;;;6202031;28;89560;-67
2022/12/01 06:19:59;;;;;;;9.13;8.20;;;21.10;85.90;;;;;;6202254;28;90087;-68
2022/12/01 06:23:02;;;;;;;9.05;8.15;;;21.10;85.80;;;;;;6196338;28;89225;-68
2022/12/01 06:26:05;;;;;;;9.15;8.23;;;21.20;85.90;;;;;;6202921;28;89232;-68
2022/12/01 06:29:07;;;;;;;8.70;7.80;;;21.10;85.80;;;;;;6184229;28;89117;-68
2022/12/01 06:32:09;;;;;;;8.27;7.43;;;21.20;85.70;;;;;;6199700;28;89172;-69
2022/12/01 06:35:11;;;;;;;8.60;7.80;;;21.20;85.80;;;;;;6206365;28;89429;-69
2022/12/01 06:38:14;;;;;;;9.80;8.20;;;21.20;86.00;;;;;;6198593;28;90020;-67
2022/12/01 06:41:16;;;;;;;8.43;7.53;;;21.20;86.00;;;;;;6203614;28;88705;-69
2022/12/01 06:44:19;;;;;;;8.73;7.75;;;21.20;86.00;;;;;;6201774;28;89266;-69
2022/12/01 06:47:20;;;;;;;9.18;8.15;;;21.30;86.00;;;;;;6207696;28;91162;-69
2022/12/01 06:50:23;;;;;;;8.70;7.80;;;21.30;86.00;;;;;;6196250;28;90205;-69
2022/12/01 06:53:27;;;;;;;9.30;8.30;;;21.40;86.10;;;;;;6203955;28;87889;-69
2022/12/01 06:56:29;;;;;;;9.02;8.13;;;21.40;86.00;;;;;;6199179;28;89314;-69
2022/12/01 06:59:31;;;;;;;8.30;7.45;;;21.40;85.90;;;;;;6200007;28;89306;-69
2022/12/01 07:02:33;;;;;;;8.63;7.72;;;21.40;86.00;;;;;;6191607;28;88153;-69
2022/12/01 07:05:35;;;;;;;8.05;7.25;;;21.40;85.80;;;;;;6199747;28;88434;-69
2022/12/01 07:08:38;;;;;;;8.55;7.45;;;21.40;85.80;;;;;;6195375;28;89427;-69
2022/12/01 07:11:40;;;;;;;8.10;7.30;;;21.40;85.70;;;;;;6208607;28;88761;-69
2022/12/01 07:14:42;;;;;;;8.93;8.02;;;21.40;85.70;;;;;;6201788;28;89512;-68
2022/12/01 07:17:44;;;;;;;8.07;7.28;;;21.40;85.70;;;;;;6207913;28;89344;-69
2022/12/01 07:20:46;;;;;;;8.15;7.35;;;21.40;85.70;;;;;;6195580;28;90125;-69
2022/12/01 07:23:50;;;;;;;8.68;7.78;;;21.40;85.70;;;;;;6205986;28;88144;-69
2022/12/01 07:26:52;;;;;;;12.38;8.50;;;21.40;85.70;;;;;;6199376;28;89376;-69
2022/12/01 07:29:54;;;;;;;8.15;7.32;;;21.40;85.60;;;;;;6199979;28;89253;-69
2022/12/01 07:32:56;;;;;;;8.20;7.32;;;21.50;85.70;;;;;;6193452;28;89140;-69
2022/12/01 07:35:58;;;;;;;8.10;7.30;;;21.50;86.60;;;;;;6203827;28;89278;-69
2022/12/01 07:39:06;;;;;;;8.48;7.50;;;21.40;85.70;;;;;;6193943;28;89070;-69
2022/12/01 07:42:08;;;;;;;11.70;7.75;;;21.50;85.70;;;;;;6209381;28;87677;-69
2022/12/01 07:45:10;;;;;;;11.88;7.72;;;21.40;85.70;;;;;;6197296;28;89249;-69
2022/12/01 07:48:12;;;;;;;10.45;7.80;;;21.50;85.90;;;;;;6198900;28;89386;-69
2022/12/01 07:51:16;;;;;;;9.75;7.72;;;21.40;85.80;;;;;;6201636;28;90094;-69
2022/12/01 07:54:20;;;;;;;9.95;7.68;;;21.50;85.90;;;;;;6196437;28;89126;-68
2022/12/01 07:57:22;;;;;;;8.40;7.47;;;21.50;85.90;;;;;;6204795;28;89355;-68
2022/12/01 08:00:24;;;;;;;9.27;7.55;;;21.50;85.90;;;;;;6204235;28;88919;-68
2022/12/01 08:03:26;;;;;;;9.52;7.57;;;21.50;85.90;;;;;;6212115;28;89617;-68
2022/12/01 08:06:28;;;;;;;8.32;7.53;;;21.50;85.90;;;;;;6202200;28;89176;-69
2022/12/01 08:09:32;;;;;;;9.70;7.97;;;21.50;85.90;;;;;;6197320;28;89261;-68
2022/12/01 08:12:34;;;;;;;8.45;7.63;;;21.50;86.20;;;;;;6201783;28;88720;-69
2022/12/01 08:15:36;;;;;;;9.20;7.88;;;21.50;85.90;;;;;;6201131;28;89153;-68
2022/12/01 08:18:39;;;;;;;10.15;7.30;;;21.50;85.90;;;;;;6200765;28;89159;-69
2022/12/01 08:21:41;;;;;;;8.30;7.50;;;21.50;85.90;;;;;;6193007;28;90593;-69
2022/12/01 08:24:45;;;;;;;8.10;7.30;;;21.50;85.90;;;;;;6209234;28;92272;-68
2022/12/01 08:27:47;;;;;;;10.50;8.40;;;21.50;86.00;;;;;;6201105;28;89265;-68
2022/12/01 08:30:49;;;;;;;9.23;7.72;;;21.60;86.00;;;;;;6192749;28;89509;-68
2022/12/01 08:33:51;;;;;;;8.88;7.15;;;21.60;86.10;;;;;;6199190;28;89300;-69
2022/12/01 08:36:53;;;;;;;10.25;7.40;;;21.60;86.10;;;;;;6206340;28;89227;-68
2022/12/01 08:39:57;;;;;;;8.85;7.90;;;21.60;86.10;;;;;;6204593;28;89202;-69
2022/12/01 08:42:59;;;;;;;9.00;8.00;;;21.60;86.10;;;;;;6187128;28;88844;-69
2022/12/01 08:46:01;;;;;;;7.85;7.05;;;21.60;86.10;;;;;;6206695;28;89115;-68
2022/12/01 08:49:05;;;;;;;8.15;7.00;;;21.60;86.10;;;;;;6205082;28;89140;-69
2022/12/01 08:52:07;;;;;;;8.27;7.38;;;21.60;86.10;;;;;;6196429;28;90050;-68
2022/12/01 08:55:10;;;;;;;7.93;7.13;;;21.70;86.20;;;;;;6200605;28;89241;-68
2022/12/01 08:58:12;;;;;;;8.35;7.55;;;21.60;86.10;;;;;;6202430;28;89297;-69
2022/12/01 09:01:16;;;;;;;11.15;8.40;;;21.60;86.10;;;;;;6184606;28;89209;-68
2022/12/01 09:04:19;;;;;;;9.20;7.68;;;21.70;86.20;;;;;;6193208;28;89570;-69
2022/12/01 09:07:21;;;;;;;8.68;7.43;;;21.70;86.20;;;;;;6205335;28;89231;-69
2022/12/01 09:10:24;;;;;;;8.15;7.07;;;21.60;86.20;;;;;;6204822;28;89535;-69
2022/12/01 09:13:28;;;;;;;9.55;7.57;;;21.70;86.20;;;;;;6204687;28;87876;-69
2022/12/01 09:16:30;;;;;;;8.90;7.65;;;21.70;86.20;;;;;;6203087;28;89058;-69
2022/12/01 09:19:32;;;;;;;8.10;7.30;;;21.70;86.30;;;;;;6204524;28;89040;-69
2022/12/01 09:22:34;;;;;;;9.68;8.20;;;21.70;86.20;;;;;;6196428;28;89951;-68
2022/12/01 09:25:38;;;;;;;9.43;7.70;;;21.70;86.20;;;;;;6202156;28;89447;-69
2022/12/01 09:28:40;;;;;;;8.77;7.85;;;21.70;86.20;;;;;;6192463;28;88102;-68
2022/12/01 09:31:42;;;;;;;9.18;7.72;;;21.70;86.20;;;;;;6200809;28;87982;-68
2022/12/01 09:34:44;;;;;;;8.65;7.70;;;21.70;86.20;;;;;;6213439;28;89271;-68
2022/12/01 09:37:46;;;;;;;9.77;7.95;;;21.70;86.20;;;;;;6194724;28;89348;-68
2022/12/01 09:40:50;;;;;;;9.07;7.80;;;21.70;86.20;;;;;;6194913;28;89170;-69
2022/12/01 09:43:59;;;;;;;8.57;7.68;;;21.70;86.20;;;;;;6196216;28;87520;-68
2022/12/01 09:47:10;;;;;;;8.20;7.38;;;21.70;86.30;;;;;;6186525;28;88044;-69
2022/12/01 09:50:17;;;;;;;8.38;7.57;;;21.80;86.30;;;;;;6191405;28;89220;-69
2022/12/01 09:53:23;;;;;;;8.98;7.80;;;21.70;86.20;;;;;;6191130;28;90039;-69
2022/12/01 09:56:29;;;;;;;9.05;7.80;;;21.70;86.30;;;;;;6202168;28;89111;-69
2022/12/01 09:59:36;;;;;;;9.05;7.68;;;21.70;86.20;;;;;;6201600;28;89300;-69
2022/12/01 10:02:43;;;;;;;8.50;7.43;;;21.70;86.20;;;;;;6202475;28;89071;-68
2022/12/01 10:05:49;;;;;;;8.45;7.55;;;21.70;86.20;;;;;;6195947;28;89237;-69
2022/12/01 10:08:57;;;;;;;8.73;7.72;;;21.80;86.40;;;;;;6202636;28;89422;-68
2022/12/01 10:12:12;;;;;;;8.93;7.90;;;21.80;86.30;;;;;;6203735;28;87968;-69
2022/12/01 10:15:24;;;;;;;8.60;7.70;;;21.80;86.40;;;;;;6192773;28;88286;-70
2022/12/01 10:18:36;;;;;;;10.25;8.38;;;21.80;86.40;;;;;;6200420;28;89407;-69
2022/12/01 10:21:52;;;;;;;8.65;7.75;;;21.80;86.70;;;;;;6206015;28;89099;-70
2022/12/01 10:25:01;;;;;;;10.68;7.78;;;21.80;87.60;;;;;;6198037;28;88939;-70
2022/12/01 10:28:21;;;;;;;10.23;8.13;;;21.80;87.60;;;;;;6196297;28;89318;-70
2022/12/01 10:31:30;;;;;;;8.68;7.50;;;21.80;87.40;;;;;;6163110;28;1295042;-70
2022/12/01 10:34:35;;;;;;;8.30;7.47;;;21.80;87.30;;;;;;6196370;28;89213;-70
2022/12/01 10:37:38;;;;;;;9.32;8.10;;;21.90;87.20;;;;;;6208789;28;89212;-69
2022/12/01 10:40:41;;;;;;;10.90;8.00;;;21.90;87.10;;;;;;6205560;28;89325;-70
2022/12/01 10:43:47;;;;;;;7.93;7.13;;;21.90;87.10;;;;;;6196438;28;89069;-70
2022/12/01 10:46:52;;;;;;;8.60;7.70;;;21.90;87.10;;;;;;6189527;28;88556;-70
2022/12/01 10:49:54;;;;;;;9.05;7.78;;;21.90;87.00;;;;;;6205264;28;89190;-69
2022/12/01 10:52:56;;;;;;;8.32;7.53;;;21.90;87.00;;;;;;6201487;28;89061;-70
2022/12/01 10:56:06;;;;;;;8.77;7.60;;;21.90;86.90;;;;;;6207020;28;90054;-70
2022/12/01 10:59:23;;;;;;;8.85;7.55;;;21.90;86.90;;;;;;6207956;28;89548;-71
2022/12/01 11:02:28;;;;;;;10.88;7.97;;;21.90;86.90;;;;;;6199767;28;89513;-70
2022/12/01 11:05:34;;;;;;;8.52;7.55;;;21.90;86.90;;;;;;6203344;28;89595;-70
2022/12/01 11:08:43;;;;;;;9.75;8.20;;;21.90;86.90;;;;;;6207454;28;90099;-70
2022/12/01 11:11:46;;;;;;;8.98;7.50;;;21.90;86.90;;;;;;6212371;28;89516;-69
2022/12/01 11:14:52;;;;;;;8.70;7.68;;;21.90;87.70;;;;;;6194746;28;89555;-68
2022/12/01 11:17:59;;;;;;;9.43;7.82;;;21.90;86.90;;;;;;6207759;28;88631;-69
2022/12/01 11:21:11;;;;;;;8.27;7.45;;;21.90;86.90;;;;;;6187492;28;89630;-70
2022/12/01 11:24:28;;;;;;;8.65;7.63;;;21.90;86.90;;;;;;6211636;28;89253;-69
2022/12/01 11:27:33;;;;;;;9.43;7.72;;;21.90;87.80;;;;;;6209105;28;88996;-69
2022/12/01 11:30:37;;;;;;;8.40;7.55;;;22.00;86.90;;;;;;6203684;28;89330;-68
2022/12/01 11:33:46;;;;;;;10.18;7.70;;;22.00;86.90;;;;;;6217124;28;89384;-67
2022/12/01 11:36:51;;;;;;;12.13;7.90;;;22.00;87.20;;;;;;6205810;28;89283;-67
2022/12/01 11:39:53;;;;;;;9.23;7.45;;;22.00;87.60;;;;;;6201180;28;89042;-66
2022/12/01 11:42:59;;;;;;;8.68;7.70;;;22.00;87.50;;;;;;6205598;28;89284;-67
2022/12/01 11:46:05;;;;;;;8.63;7.72;;;22.00;90.20;;;;;;6207197;28;89583;-66
2022/12/01 11:49:17;;;;;;;8.88;7.82;;;22.00;89.10;;;;;;6203813;28;86852;-68
2022/12/01 11:52:26;;;;;;;11.88;8.93;;;22.00;90.80;;;;;;6195462;28;89183;-67
2022/12/01 11:55:29;;;;;;;12.20;9.85;;;22.10;90.40;;;;;;6199122;28;89129;-67
2022/12/01 11:58:31;;;;;;;12.25;9.13;;;22.10;93.50;;;;;;6193077;28;90109;-67
2022/12/01 12:01:45;;;;;;;11.82;9.73;;;22.20;91.80;;;;;;6193755;28;89251;-67
2022/12/01 12:05:10;;;;;;;11.80;9.90;;;22.30;91.50;;;;;;6204745;28;88936;-68
2022/12/01 12:08:18;;;;;;;10.43;9.25;;;22.70;90.10;;;;;;6156017;28;89244;-66
2022/12/01 12:11:24;;;;;;;11.80;9.80;;;23.10;88.40;;;;;;6206296;28;89564;-68
2022/12/01 12:14:48;;;;;;;12.02;9.38;;;23.30;86.70;;;;;;6186417;28;89306;-68
2022/12/01 12:18:07;;;;;;;13.10;9.13;;;23.30;86.30;;;;;;6194535;28;89348;-68
2022/12/01 12:21:20;;;;;;;10.20;9.20;;;23.20;85.90;;;;;;6186492;28;87285;-68
2022/12/01 12:24:39;;;;;;;11.30;9.40;;;23.10;86.10;;;;;;6193442;28;89141;-68
2022/12/01 12:27:48;;;;;;;11.52;9.75;;;23.00;86.20;;;;;;6199507;28;88035;-69
2022/12/01 12:30:57;;;;;;;14.20;9.60;;;22.90;86.50;;;;;;6208429;28;90059;-69
2022/12/01 12:34:29;;;;;;;12.68;9.48;;;22.80;86.60;;;;;;6193757;28;89204;-68
2022/12/01 12:37:38;;;;;;;13.40;9.80;;;22.70;86.80;;;;;;6191315;28;89266;-68
2022/12/01 12:40:44;;;;;;;13.80;10.15;;;22.70;87.20;;;;;;6212310;28;89277;-68
2022/12/01 12:43:58;;;;;;;12.95;9.45;;;22.60;87.20;;;;;;6194689;28;89282;-69
2022/12/01 12:47:12;;;;;;;12.52;9.43;;;22.60;87.40;;;;;;6193634;28;89115;-68
2022/12/01 12:50:25;;;;;;;15.63;9.63;;;22.50;87.40;;;;;;6194612;28;89546;-68
2022/12/01 12:53:33;;;;;;;16.15;10.15;;;22.50;87.40;;;;;;6192724;28;87343;-69
2022/12/01 12:56:36;;;;;;;17.35;10.00;;;22.50;87.80;;;;;;6193744;28;89175;-68
2022/12/01 12:59:45;;;;;;;16.27;9.93;;;22.40;88.10;;;;;;6199998;28;89224;-68
2022/12/01 13:02:50;;;;;;;14.38;10.02;;;22.40;88.20;;;;;;6193990;28;89116;-68
2022/12/01 13:05:59;;;;;;;17.80;10.05;;;22.40;88.30;;;;;;6204348;28;89321;-68
2022/12/01 13:09:08;;;;;;;17.65;10.27;;;22.40;88.20;;;;;;6210058;28;89079;-68
2022/12/01 13:12:14;;;;;;;15.48;9.98;;;22.40;88.10;;;;;;6201820;28;88185;-68
2022/12/01 13:15:19;;;;;;;16.67;9.82;;;22.40;88.30;;;;;;6192497;28;89332;-68
2022/12/01 13:18:28;;;;;;;19.65;10.98;;;22.30;88.10;;;;;;6202097;28;89230;-68
2022/12/01 13:21:36;;;;;;;13.93;9.20;;;22.40;88.30;;;;;;6202721;28;89060;-68
2022/12/01 13:24:39;;;;;;;12.52;9.27;;;22.30;88.00;;;;;;6213841;28;88665;-68
2022/12/01 13:27:43;;;;;;;14.27;9.45;;;22.30;88.00;;;;;;6197683;28;89050;-69
2022/12/01 13:31:02;;;;;;;14.65;9.73;;;22.40;88.30;;;;;;6186816;28;89091;-68
2022/12/01 13:34:05;;;;;;;16.65;10.32;;;22.40;93.60;;;;;;6200572;28;90017;-68
2022/12/01 13:37:10;;;;;;;15.27;9.48;;;22.50;92.60;;;;;;6202753;28;89313;-68
2022/12/01 13:40:21;;;;;;;13.80;9.10;;;22.60;91.70;;;;;;6201733;28;91681;-68
2022/12/01 13:43:23;;;;;;;12.25;9.00;;;22.60;90.90;;;;;;6204851;28;88359;-67
2022/12/01 13:46:29;;;;;;;12.77;9.27;;;22.60;90.50;;;;;;6191908;28;90017;-68
2022/12/01 13:49:50;;;;;;;12.40;9.10;;;22.60;90.20;;;;;;6216425;28;89570;-68
2022/12/01 13:53:10;;;;;;;12.45;8.38;;;22.60;90.00;;;;;;6192571;28;89605;-68
2022/12/01 13:56:26;;;;;;;12.15;8.82;;;22.60;89.80;;;;;;6197028;28;88336;-68
2022/12/01 13:59:57;;;;;;;12.07;8.57;;;22.70;89.40;;;;;;6202015;28;89405;-69
2022/12/01 14:03:38;;;;;;;13.75;8.65;;;22.70;89.10;;;;;;6203878;28;89249;-68
2022/12/01 14:06:45;;;;;;;11.20;8.55;;;22.60;88.30;;;;;;6198762;28;90084;-68
2022/12/01 14:09:51;;;;;;;13.57;8.65;;;22.70;88.20;;;;;;6206596;28;89392;-68
2022/12/01 14:12:56;;;;;;;10.18;7.93;;;22.60;88.00;;;;;;6205910;28;89095;-68
2022/12/01 14:16:00;;;;;;;11.98;8.27;;;22.60;87.90;;;;;;6197515;28;89199;-68
2022/12/01 14:19:02;;;;;;;13.07;8.27;;;22.60;87.90;;;;;;6199373;28;90084;-68
2022/12/01 14:22:06;;;;;;;11.13;8.23;;;22.50;87.70;;;;;;6206412;28;89324;-69
2022/12/01 14:25:24;;;;;;;11.50;8.27;;;22.50;87.70;;;;;;6211604;28;89276;-68
2022/12/01 14:29:08;;;;;;;10.50;8.15;;;22.50;87.70;;;;;;6210454;28;88428;-68
2022/12/01 14:32:21;;;;;;;11.20;8.05;;;22.50;87.60;;;;;;6157087;28;88005;-68
2022/12/01 14:35:24;;;;;;;10.45;8.00;;;22.50;88.40;;;;;;6188999;28;90837;-68
2022/12/01 14:38:28;;;;;;;11.32;8.15;;;22.50;87.40;;;;;;6201706;28;89072;-68
2022/12/01 14:41:39;;;;;;;10.35;8.05;;;22.50;87.40;;;;;;6203288;28;89140;-68
2022/12/01 14:44:47;;;;;;;10.05;7.38;;;22.50;87.30;;;;;;6204552;28;89118;-68
2022/12/01 14:47:55;;;;;;;9.00;7.75;;;22.50;87.20;;;;;;6184924;28;89210;-68
2022/12/01 14:51:13;;;;;;;9.85;7.43;;;22.60;87.20;;;;;;6199663;28;89477;-68
2022/12/01 14:54:24;;;;;;;9.80;7.50;;;22.50;87.10;;;;;;6193508;28;89269;-68
2022/12/01 14:57:33;;;;;;;10.85;7.53;;;22.50;87.00;;;;;;6197788;28;89291;-68
2022/12/01 15:00:37;;;;;;;10.48;7.50;;;22.50;87.00;;;;;;6205691;28;89882;-68
2022/12/01 15:03:43;;;;;;;9.77;7.82;;;22.60;87.10;;;;;;6196394;28;89337;-68
2022/12/01 15:06:46;;;;;;;9.32;7.38;;;22.50;86.90;;;;;;6199000;28;89733;-68
2022/12/01 15:09:59;;;;;;;11.40;8.35;;;22.60;86.90;;;;;;6202804;28;90148;-68
2022/12/01 15:13:20;;;;;;;10.20;7.53;;;22.50;86.90;;;;;;6201941;28;89914;-70
2022/12/01 15:16:24;;;;;;;9.25;7.45;;;22.50;87.20;;;;;;6181532;28;89209;-69
2022/12/01 15:19:32;;;;;;;9.25;7.70;;;22.50;87.30;;;;;;6208431;28;89090;-68
2022/12/01 15:22:34;;;;;;;11.57;7.72;;;22.50;87.30;;;;;;6195243;28;89166;-68
2022/12/01 15:25:36;;;;;;;8.75;7.22;;;22.50;87.20;;;;;;6198123;28;89763;-69
2022/12/01 15:28:39;;;;;;;11.32;7.45;;;22.50;87.40;;;;;;6205650;28;89709;-69
2022/12/01 15:31:43;;;;;;;10.70;7.50;;;22.50;87.50;;;;;;6200505;28;88741;-69
2022/12/01 15:34:47;;;;;;;10.20;7.97;;;22.50;87.70;;;;;;6197275;28;89640;-70
2022/12/01 15:37:52;;;;;;;10.68;7.78;;;22.50;87.90;;;;;;6192183;28;89517;-69
2022/12/01 15:40:56;;;;;;;10.00;7.45;;;22.50;88.10;;;;;;6200853;28;89010;-69
2022/12/01 15:44:02;;;;;;;10.30;7.72;;;22.50;88.30;;;;;;6198212;28;89268;-69
2022/12/01 15:47:34;;;;;;;10.07;7.68;;;22.50;88.40;;;;;;6193338;28;89055;-69
2022/12/01 15:50:39;;;;;;;9.55;7.68;;;22.50;88.60;;;;;;6192362;28;89037;-69
2022/12/01 15:53:47;;;;;;;9.05;7.47;;;22.50;88.80;;;;;;6194226;28;88391;-69
2022/12/01 15:56:54;;;;;;;9.15;7.03;;;22.50;88.90;;;;;;6194978;28;89358;-69
2022/12/01 15:59:58;;;;;;;8.02;7.00;;;22.50;89.10;;;;;;6187869;28;89373;-69
2022/12/01 16:03:01;;;;;;;9.77;7.82;;;22.50;89.20;;;;;;6194564;28;88475;-69
2022/12/01 16:06:03;;;;;;;8.82;7.10;;;22.50;89.30;;;;;;6192328;28;89252;-69